Bonaria — ICUS — position and weather

sailwx.info

Track history (hours):
 
Tides and Currents Weather Stations Pressure Air Temp Water Temp Dewpoint Dewpoint Depression Visibility Wind Speed Wind Dir Waves Ship Positions

Bonaria

Last reported at 2016-May-22 18:33 UTC. Time now 2016-May-24 13:47 UTC.
Position N 39°01' E 009°35'.

Length 213 m; draft 6.7 m.

Type: Passenger vessel. MMSI: 247322400.

Date/timePositionNaut miles runAvg speedWind from/ knotsBaromVisibWave heightAir tempDewpointWater temp
2016-May-22 18:33N 39°01' E 009°35'1919.1
2016-May-22 17:32N 39°08' E 009°12'7 6.6
2016-May-22 16:33N 39°13' E 009°06'0 0.0
2016-May-22 15:33N 39°13' E 009°06'0 0.0
2016-May-22 14:32N 39°13' E 009°06'0 0.0
2016-May-22 13:32N 39°13' E 009°06'0 0.0
2016-May-22 12:31N 39°13' E 009°06'0 0.0
2016-May-22 11:31N 39°13' E 009°06'0 0.0
2016-May-22 10:33N 39°13' E 009°06'0 0.0
2016-May-22 09:33N 39°13' E 009°06'0 0.0
2016-May-22 08:33N 39°13' E 009°06'0 0.0
2016-May-22 07:32N 39°13' E 009°06'0 0.0
2016-May-22 06:32N 39°13' E 009°06'8 8.3
2016-May-22 05:33N 39°07' E 009°14'16818.6
2016-May-21 20:33N 41°27' E 011°15'  
2016-May-14 17:33N 39°08' E 009°11'6 5.7
2016-May-14 16:31N 39°13' E 009°06'0 0.0
2016-May-14 15:31N 39°13' E 009°06'0 0.0
2016-May-14 14:33N 39°13' E 009°06'0 0.0
2016-May-14 13:33N 39°13' E 009°06'0 0.0
2016-May-14 12:29N 39°13' E 009°06'0 0.0
2016-May-14 11:32N 39°13' E 009°06'0 0.0
2016-May-14 10:31N 39°13' E 009°06'0 0.0
2016-May-14 09:31N 39°13' E 009°06'0 0.0
2016-May-14 08:31N 39°13' E 009°06'5 5.1
2016-May-14 07:33N 39°09' E 009°10'  
Track history (hours):
 
Tides and Currents Weather Stations Pressure Air Temp Water Temp Dewpoint Dewpoint Depression Visibility Wind Speed Wind Dir Waves Ship Positions

Bonaria

Last reported at 2016-May-22 18:33 UTC. Time now 2016-May-24 13:47 UTC.
Position N 39°01' E 009°35'.

Length 213 m; draft 6.7 m.

Type: Passenger vessel. MMSI: 247322400.

Date/timePositionNaut miles runAvg speedWind from/ knotsBaromVisibWave heightAir tempDewpointWater temp
2016-May-22 18:33N 39°01' E 009°35'1919.1
2016-May-22 17:32N 39°08' E 009°12'7 6.6
2016-May-22 16:33N 39°13' E 009°06'0 0.0
2016-May-22 15:33N 39°13' E 009°06'0 0.0
2016-May-22 14:32N 39°13' E 009°06'0 0.0
2016-May-22 13:32N 39°13' E 009°06'0 0.0
2016-May-22 12:31N 39°13' E 009°06'0 0.0
2016-May-22 11:31N 39°13' E 009°06'0 0.0
2016-May-22 10:33N 39°13' E 009°06'0 0.0
2016-May-22 09:33N 39°13' E 009°06'0 0.0
2016-May-22 08:33N 39°13' E 009°06'0 0.0
2016-May-22 07:32N 39°13' E 009°06'0 0.0
2016-May-22 06:32N 39°13' E 009°06'8 8.3
2016-May-22 05:33N 39°07' E 009°14'16818.6
2016-May-21 20:33N 41°27' E 011°15'  
2016-May-14 17:33N 39°08' E 009°11'6 5.7
2016-May-14 16:31N 39°13' E 009°06'0 0.0
2016-May-14 15:31N 39°13' E 009°06'0 0.0
2016-May-14 14:33N 39°13' E 009°06'0 0.0
2016-May-14 13:33N 39°13' E 009°06'0 0.0
2016-May-14 12:29N 39°13' E 009°06'0 0.0
2016-May-14 11:32N 39°13' E 009°06'0 0.0
2016-May-14 10:31N 39°13' E 009°06'0 0.0
2016-May-14 09:31N 39°13' E 009°06'0 0.0
2016-May-14 08:31N 39°13' E 009°06'5 5.1
2016-May-14 07:33N 39°09' E 009°10'  

Dump ship's entire track history